sensor_id;sensor_type;location;lat;lon;timestamp;pressure;altitude;pressure_sealevel;temperature;humidity
50105;BME280;47690;39.202;-77.198;2023-12-20T00:02:03;101175.34;;;6.80;34.08
50105;BME280;47690;39.202;-77.198;2023-12-20T00:04:32;101177.78;;;6.75;33.90
50105;BME280;47690;39.202;-77.198;2023-12-20T00:07:01;101184.66;;;6.76;34.06
50105;BME280;47690;39.202;-77.198;2023-12-20T00:09:34;101188.94;;;6.79;34.20
50105;BME280;47690;39.202;-77.198;2023-12-20T00:12:04;101194.06;;;6.77;34.16
50105;BME280;47690;39.202;-77.198;2023-12-20T00:14:33;101185.50;;;6.77;33.98
50105;BME280;47690;39.202;-77.198;2023-12-20T00:17:02;101185.56;;;6.80;33.62
50105;BME280;47690;39.202;-77.198;2023-12-20T00:19:32;101188.06;;;6.77;33.98
50105;BME280;47690;39.202;-77.198;2023-12-20T00:22:04;101190.63;;;6.77;33.94
50105;BME280;47690;39.202;-77.198;2023-12-20T00:24:35;101197.41;;;6.73;33.91
50105;BME280;47690;39.202;-77.198;2023-12-20T00:27:05;101199.94;;;6.70;34.02
50105;BME280;47690;39.202;-77.198;2023-12-20T00:29:34;101205.06;;;6.70;33.94
50105;BME280;47690;39.202;-77.198;2023-12-20T00:32:03;101209.28;;;6.69;34.00
50105;BME280;47690;39.202;-77.198;2023-12-20T00:34:34;101206.72;;;6.69;34.07
50105;BME280;47690;39.202;-77.198;2023-12-20T00:37:04;101211.91;;;6.73;34.20
50105;BME280;47690;39.202;-77.198;2023-12-20T00:39:33;101218.72;;;6.72;34.14
50105;BME280;47690;39.202;-77.198;2023-12-20T00:42:04;101222.09;;;6.69;34.11
50105;BME280;47690;39.202;-77.198;2023-12-20T00:44:35;101225.56;;;6.73;34.13
50105;BME280;47690;39.202;-77.198;2023-12-20T00:47:04;101228.94;;;6.70;33.92
50105;BME280;47690;39.202;-77.198;2023-12-20T00:49:33;101239.19;;;6.70;33.95
50105;BME280;47690;39.202;-77.198;2023-12-20T00:52:02;101242.53;;;6.66;34.12
50105;BME280;47690;39.202;-77.198;2023-12-20T00:54:30;101244.22;;;6.66;34.03
50105;BME280;47690;39.202;-77.198;2023-12-20T00:56:59;101245.03;;;6.63;33.83
50105;BME280;47690;39.202;-77.198;2023-12-20T00:59:29;101242.44;;;6.60;34.01
50105;BME280;47690;39.202;-77.198;2023-12-20T01:01:57;101250.06;;;6.57;34.03
50105;BME280;47690;39.202;-77.198;2023-12-20T01:04:31;101259.41;;;6.55;34.08
50105;BME280;47690;39.202;-77.198;2023-12-20T01:07:01;101259.41;;;6.53;34.47
50105;BME280;47690;39.202;-77.198;2023-12-20T01:09:30;101267.06;;;6.53;34.10
50105;BME280;47690;39.202;-77.198;2023-12-20T01:11:59;101264.44;;;6.50;33.93
50105;BME280;47690;39.202;-77.198;2023-12-20T01:14:58;101267.78;;;6.46;33.59
50105;BME280;47690;39.202;-77.198;2023-12-20T01:17:45;101259.28;;;6.47;33.75
50105;BME280;47690;39.202;-77.198;2023-12-20T01:20:45;101261.84;;;6.49;34.04
50105;BME280;47690;39.202;-77.198;2023-12-20T01:23:20;101271.28;;;6.50;34.10
50105;BME280;47690;39.202;-77.198;2023-12-20T01:25:48;101278.13;;;6.51;34.24
50105;BME280;47690;39.202;-77.198;2023-12-20T01:28:18;101272.00;;;6.44;33.96
50105;BME280;47690;39.202;-77.198;2023-12-20T01:30:48;101277.13;;;6.44;33.86
50105;BME280;47690;39.202;-77.198;2023-12-20T01:33:17;101272.78;;;6.40;34.20
50105;BME280;47690;39.202;-77.198;2023-12-20T01:35:45;101280.47;;;6.41;34.15
50105;BME280;47690;39.202;-77.198;2023-12-20T01:38:14;101295.78;;;6.38;34.08
50105;BME280;47690;39.202;-77.198;2023-12-20T01:40:43;101310.31;;;6.39;34.17
50105;BME280;47690;39.202;-77.198;2023-12-20T01:43:11;101316.31;;;6.40;34.25
50105;BME280;47690;39.202;-77.198;2023-12-20T01:45:40;101328.22;;;6.39;34.04
50105;BME280;47690;39.202;-77.198;2023-12-20T01:48:09;101316.09;;;6.29;34.14
50105;BME280;47690;39.202;-77.198;2023-12-20T01:50:39;101326.41;;;6.34;34.40
50105;BME280;47690;39.202;-77.198;2023-12-20T01:53:09;101328.88;;;6.29;33.99
50105;BME280;47690;39.202;-77.198;2023-12-20T01:55:40;101333.09;;;6.25;33.85
50105;BME280;47690;39.202;-77.198;2023-12-20T01:58:09;101333.78;;;6.20;34.03
50105;BME280;47690;39.202;-77.198;2023-12-20T02:00:38;101338.81;;;6.15;34.57
50105;BME280;47690;39.202;-77.198;2023-12-20T02:03:07;101348.22;;;6.14;34.27
50105;BME280;47690;39.202;-77.198;2023-12-20T02:05:37;101342.16;;;6.11;34.41
50105;BME280;47690;39.202;-77.198;2023-12-20T02:08:06;101343.06;;;6.13;34.59
50105;BME280;47690;39.202;-77.198;2023-12-20T02:10:35;101351.56;;;6.12;34.47
50105;BME280;47690;39.202;-77.198;2023-12-20T02:13:03;101355.88;;;6.14;34.39
50105;BME280;47690;39.202;-77.198;2023-12-20T02:15:33;101368.69;;;6.16;34.09
50105;BME280;47690;39.202;-77.198;2023-12-20T02:18:01;101369.47;;;6.12;34.11
50105;BME280;47690;39.202;-77.198;2023-12-20T02:20:30;101369.34;;;6.06;34.37
50105;BME280;47690;39.202;-77.198;2023-12-20T02:23:01;101371.00;;;6.04;34.20
50105;BME280;47690;39.202;-77.198;2023-12-20T02:25:30;101375.31;;;6.06;34.52
50105;BME280;47690;39.202;-77.198;2023-12-20T02:28:01;101376.13;;;6.05;34.19
50105;BME280;47690;39.202;-77.198;2023-12-20T02:30:31;101377.91;;;6.08;34.31
50105;BME280;47690;39.202;-77.198;2023-12-20T02:33:03;101384.81;;;6.12;34.19
50105;BME280;47690;39.202;-77.198;2023-12-20T02:35:35;101393.34;;;6.12;34.32
50105;BME280;47690;39.202;-77.198;2023-12-20T02:38:04;101390.72;;;6.09;34.46
50105;BME280;47690;39.202;-77.198;2023-12-20T02:40:33;101392.41;;;6.07;34.20
50105;BME280;47690;39.202;-77.198;2023-12-20T02:43:02;101396.69;;;6.08;34.43
50105;BME280;47690;39.202;-77.198;2023-12-20T02:45:31;101402.69;;;6.10;34.59
50105;BME280;47690;39.202;-77.198;2023-12-20T02:47:59;101407.91;;;6.15;34.14
50105;BME280;47690;39.202;-77.198;2023-12-20T02:50:29;101407.94;;;6.17;34.21
50105;BME280;47690;39.202;-77.198;2023-12-20T02:53:01;101401.94;;;6.14;34.29
50105;BME280;47690;39.202;-77.198;2023-12-20T02:55:31;101407.00;;;6.13;34.38
50105;BME280;47690;39.202;-77.198;2023-12-20T02:58:00;101407.75;;;6.09;34.26
50105;BME280;47690;39.202;-77.198;2023-12-20T03:00:34;101415.31;;;6.03;34.04
50105;BME280;47690;39.202;-77.198;2023-12-20T03:03:02;101420.31;;;5.98;34.55
50105;BME280;47690;39.202;-77.198;2023-12-20T03:05:31;101418.59;;;5.98;34.22
50105;BME280;47690;39.202;-77.198;2023-12-20T03:08:00;101423.88;;;6.05;34.37
50105;BME280;47690;39.202;-77.198;2023-12-20T03:10:30;101424.81;;;6.08;34.50
50105;BME280;47690;39.202;-77.198;2023-12-20T03:12:59;101427.28;;;6.05;34.36
50105;BME280;47690;39.202;-77.198;2023-12-20T03:15:28;101433.91;;;5.97;34.45
50105;BME280;47690;39.202;-77.198;2023-12-20T03:17:58;101432.84;;;5.88;34.48
50105;BME280;47690;39.202;-77.198;2023-12-20T03:20:30;101439.50;;;5.80;34.17
50105;BME280;47690;39.202;-77.198;2023-12-20T03:23:02;101443.63;;;5.75;34.01
50105;BME280;47690;39.202;-77.198;2023-12-20T03:25:34;101438.50;;;5.75;34.39
50105;BME280;47690;39.202;-77.198;2023-12-20T03:28:04;101437.75;;;5.79;34.41
50105;BME280;47690;39.202;-77.198;2023-12-20T03:30:32;101430.03;;;5.76;34.30
50105;BME280;47690;39.202;-77.198;2023-12-20T03:33:02;101436.03;;;5.78;34.74
50105;BME280;47690;39.202;-77.198;2023-12-20T03:35:32;101435.94;;;5.75;34.56
50105;BME280;47690;39.202;-77.198;2023-12-20T03:38:03;101444.28;;;5.66;34.67
50105;BME280;47690;39.202;-77.198;2023-12-20T03:40:33;101438.06;;;5.56;34.45
50105;BME280;47690;39.202;-77.198;2023-12-20T03:43:02;101440.34;;;5.45;34.40
50105;BME280;47690;39.202;-77.198;2023-12-20T03:45:31;101452.25;;;5.43;34.88
50105;BME280;47690;39.202;-77.198;2023-12-20T03:47:59;101442.97;;;5.47;34.87
50105;BME280;47690;39.202;-77.198;2023-12-20T03:50:29;101448.13;;;5.50;34.51
50105;BME280;47690;39.202;-77.198;2023-12-20T03:53:00;101445.53;;;5.47;35.11
50105;BME280;47690;39.202;-77.198;2023-12-20T03:55:30;101447.16;;;5.45;34.88
50105;BME280;47690;39.202;-77.198;2023-12-20T03:58:00;101445.34;;;5.41;35.05
50105;BME280;47690;39.202;-77.198;2023-12-20T04:00:29;101450.38;;;5.38;34.88
50105;BME280;47690;39.202;-77.198;2023-12-20T04:02:57;101451.19;;;5.37;35.29
50105;BME280;47690;39.202;-77.198;2023-12-20T04:05:28;101458.13;;;5.41;35.04
50105;BME280;47690;39.202;-77.198;2023-12-20T04:08:00;101452.25;;;5.43;35.26
50105;BME280;47690;39.202;-77.198;2023-12-20T04:10:30;101453.09;;;5.44;34.81
50105;BME280;47690;39.202;-77.198;2023-12-20T04:13:00;101461.66;;;5.46;35.28
50105;BME280;47690;39.202;-77.198;2023-12-20T04:15:30;101465.09;;;5.46;35.19
50105;BME280;47690;39.202;-77.198;2023-12-20T04:18:01;101454.88;;;5.46;34.80
50105;BME280;47690;39.202;-77.198;2023-12-20T04:20:30;101454.78;;;5.43;35.17
50105;BME280;47690;39.202;-77.198;2023-12-20T04:23:00;101459.84;;;5.42;35.24
50105;BME280;47690;39.202;-77.198;2023-12-20T04:25:30;101469.19;;;5.41;35.33
50105;BME280;47690;39.202;-77.198;2023-12-20T04:28:07;101475.09;;;5.39;34.93
50105;BME280;47690;39.202;-77.198;2023-12-20T04:30:37;101479.31;;;5.37;35.23
50105;BME280;47690;39.202;-77.198;2023-12-20T04:33:07;101476.69;;;5.35;35.10
50105;BME280;47690;39.202;-77.198;2023-12-20T04:35:36;101485.25;;;5.36;35.25
50105;BME280;47690;39.202;-77.198;2023-12-20T04:38:04;101481.75;;;5.32;35.09
50105;BME280;47690;39.202;-77.198;2023-12-20T04:40:32;101481.75;;;5.32;34.78
50105;BME280;47690;39.202;-77.198;2023-12-20T04:43:02;101491.91;;;5.29;35.47
50105;BME280;47690;39.202;-77.198;2023-12-20T04:45:31;101490.94;;;5.25;35.29
50105;BME280;47690;39.202;-77.198;2023-12-20T04:48:00;101489.91;;;5.18;35.23
50105;BME280;47690;39.202;-77.198;2023-12-20T04:50:31;101483.78;;;5.12;35.29
50105;BME280;47690;39.202;-77.198;2023-12-20T04:53:01;101483.66;;;5.09;35.40
50105;BME280;47690;39.202;-77.198;2023-12-20T04:55:31;101485.44;;;5.11;35.22
50105;BME280;47690;39.202;-77.198;2023-12-20T04:58:03;101483.78;;;5.12;35.31
50105;BME280;47690;39.202;-77.198;2023-12-20T05:00:31;101482.91;;;5.11;35.45
50105;BME280;47690;39.202;-77.198;2023-12-20T05:03:00;101484.59;;;5.11;35.47
50105;BME280;47690;39.202;-77.198;2023-12-20T05:05:30;101476.72;;;5.03;35.69
50105;BME280;47690;39.202;-77.198;2023-12-20T05:08:00;101481.56;;;4.94;35.19
50105;BME280;47690;39.202;-77.198;2023-12-20T05:10:30;101480.50;;;4.87;35.89
50105;BME280;47690;39.202;-77.198;2023-12-20T05:12:59;101477.81;;;4.81;35.22
50105;BME280;47690;39.202;-77.198;2023-12-20T05:15:32;101478.72;;;4.83;35.70
50105;BME280;47690;39.202;-77.198;2023-12-20T05:18:01;101474.50;;;4.85;35.41
50105;BME280;47690;39.202;-77.198;2023-12-20T05:20:31;101475.41;;;4.87;35.35
50105;BME280;47690;39.202;-77.198;2023-12-20T05:23:00;101478.78;;;4.86;35.88
50105;BME280;47690;39.202;-77.198;2023-12-20T05:25:31;101477.81;;;4.81;36.08
50105;BME280;47690;39.202;-77.198;2023-12-20T05:28:00;101476.69;;;4.72;36.40
50105;BME280;47690;39.202;-77.198;2023-12-20T05:30:30;101474.81;;;4.65;35.71
50105;BME280;47690;39.202;-77.198;2023-12-20T05:32:59;101478.88;;;4.58;35.49
50105;BME280;47690;39.202;-77.198;2023-12-20T05:35:34;101487.41;;;4.59;35.80
50105;BME280;47690;39.202;-77.198;2023-12-20T05:38:03;101486.56;;;4.60;36.18
50105;BME280;47690;39.202;-77.198;2023-12-20T05:40:35;101495.13;;;4.62;36.15
50105;BME280;47690;39.202;-77.198;2023-12-20T05:43:11;101485.63;;;4.56;35.89
50105;BME280;47690;39.202;-77.198;2023-12-20T05:45:40;101486.31;;;4.50;36.14
50105;BME280;47690;39.202;-77.198;2023-12-20T05:48:11;101499.66;;;4.42;35.43
50105;BME280;47690;39.202;-77.198;2023-12-20T05:50:40;101501.81;;;4.29;35.72
50105;BME280;47690;39.202;-77.198;2023-12-20T05:53:08;101503.19;;;4.18;35.92
50105;BME280;47690;39.202;-77.198;2023-12-20T05:55:37;101507.19;;;4.11;36.14
50105;BME280;47690;39.202;-77.198;2023-12-20T05:58:07;101507.06;;;4.06;36.53
50105;BME280;47690;39.202;-77.198;2023-12-20T06:00:35;101503.00;;;4.13;36.82
50105;BME280;47690;39.202;-77.198;2023-12-20T06:03:04;101505.81;;;4.21;36.64
50105;BME280;47690;39.202;-77.198;2023-12-20T06:05:37;101501.81;;;4.29;36.62
50105;BME280;47690;39.202;-77.198;2023-12-20T06:08:06;101503.66;;;4.33;36.62
50105;BME280;47690;39.202;-77.198;2023-12-20T06:10:35;101493.44;;;4.33;36.27
50105;BME280;47690;39.202;-77.198;2023-12-20T06:13:03;101490.84;;;4.32;36.44
50105;BME280;47690;39.202;-77.198;2023-12-20T06:15:33;101500.22;;;4.33;35.81
50105;BME280;47690;39.202;-77.198;2023-12-20T06:18:03;101510.34;;;4.30;36.65
50105;BME280;47690;39.202;-77.198;2023-12-20T06:20:32;101505.88;;;4.22;36.12
50105;BME280;47690;39.202;-77.198;2023-12-20T06:23:01;101501.66;;;4.24;36.77
50105;BME280;47690;39.202;-77.198;2023-12-20T06:25:32;101512.88;;;4.30;36.29
50105;BME280;47690;39.202;-77.198;2023-12-20T06:28:01;101512.06;;;4.31;37.20
50105;BME280;47690;39.202;-77.198;2023-12-20T06:30:31;101514.75;;;4.35;36.29
50105;BME280;47690;39.202;-77.198;2023-12-20T06:33:01;101510.53;;;4.36;36.28
50105;BME280;47690;39.202;-77.198;2023-12-20T06:35:31;101516.53;;;4.38;36.79
50105;BME280;47690;39.202;-77.198;2023-12-20T06:38:03;101509.59;;;4.34;36.40
50105;BME280;47690;39.202;-77.198;2023-12-20T06:40:32;101507.69;;;4.27;36.55
50105;BME280;47690;39.202;-77.198;2023-12-20T06:43:02;101510.19;;;4.25;36.35
50105;BME280;47690;39.202;-77.198;2023-12-20T06:45:42;101505.13;;;4.27;36.85
50105;BME280;47690;39.202;-77.198;2023-12-20T06:48:11;101515.38;;;4.28;36.16
50105;BME280;47690;39.202;-77.198;2023-12-20T06:50:42;101511.81;;;4.23;36.88
50105;BME280;47690;39.202;-77.198;2023-12-20T06:53:10;101513.25;;;4.15;35.87
50105;BME280;47690;39.202;-77.198;2023-12-20T06:55:38;101509.03;;;4.15;36.83
50105;BME280;47690;39.202;-77.198;2023-12-20T06:58:07;101514.91;;;4.13;36.59
50105;BME280;47690;39.202;-77.198;2023-12-20T07:00:36;101508.06;;;4.12;36.79
50105;BME280;47690;39.202;-77.198;2023-12-20T07:03:04;101511.44;;;4.10;36.68
50105;BME280;47690;39.202;-77.198;2023-12-20T07:05:33;101518.22;;;4.10;36.87
50105;BME280;47690;39.202;-77.198;2023-12-20T07:08:02;101519.94;;;4.11;36.57
50105;BME280;47690;39.202;-77.198;2023-12-20T07:10:31;101523.06;;;4.02;36.37
50105;BME280;47690;39.202;-77.198;2023-12-20T07:13:00;101516.00;;;3.93;36.96
50105;BME280;47690;39.202;-77.198;2023-12-20T07:15:30;101514.13;;;3.88;37.25
50105;BME280;47690;39.202;-77.198;2023-12-20T07:18:00;101515.69;;;3.84;36.65
50105;BME280;47690;39.202;-77.198;2023-12-20T07:20:30;101512.34;;;3.85;36.47
50105;BME280;47690;39.202;-77.198;2023-12-20T07:23:00;101520.00;;;3.87;36.58
50105;BME280;47690;39.202;-77.198;2023-12-20T07:25:29;101523.34;;;3.84;37.12
50105;BME280;47690;39.202;-77.198;2023-12-20T07:28:00;101525.16;;;3.88;37.14
50105;BME280;47690;39.202;-77.198;2023-12-20T07:30:30;101519.25;;;3.89;37.32
50105;BME280;47690;39.202;-77.198;2023-12-20T07:33:00;101519.31;;;3.91;37.03
50105;BME280;47690;39.202;-77.198;2023-12-20T07:35:30;101524.50;;;3.94;36.59
50105;BME280;47690;39.202;-77.198;2023-12-20T07:38:01;101518.59;;;3.95;36.90
50105;BME280;47690;39.202;-77.198;2023-12-20T07:40:30;101519.44;;;3.95;36.97
50105;BME280;47690;39.202;-77.198;2023-12-20T07:43:03;101509.19;;;3.94;37.61
50105;BME280;47690;39.202;-77.198;2023-12-20T07:45:32;101520.34;;;3.96;37.06
50105;BME280;47690;39.202;-77.198;2023-12-20T07:48:00;101515.19;;;3.94;37.11
50105;BME280;47690;39.202;-77.198;2023-12-20T07:50:30;101519.44;;;3.95;36.79
50105;BME280;47690;39.202;-77.198;2023-12-20T07:53:02;101525.31;;;3.93;36.77
50105;BME280;47690;39.202;-77.198;2023-12-20T07:55:31;101523.50;;;3.89;36.91
50105;BME280;47690;39.202;-77.198;2023-12-20T07:58:01;101522.56;;;3.87;37.21
50105;BME280;47690;39.202;-77.198;2023-12-20T08:00:29;101519.09;;;3.85;36.50
50105;BME280;47690;39.202;-77.198;2023-12-20T08:03:01;101517.38;;;3.83;37.10
50105;BME280;47690;39.202;-77.198;2023-12-20T08:05:32;101521.56;;;3.81;37.15
50105;BME280;47690;39.202;-77.198;2023-12-20T08:08:00;101514.56;;;3.76;36.75
50105;BME280;47690;39.202;-77.198;2023-12-20T08:10:30;101522.09;;;3.73;36.64
50105;BME280;47690;39.202;-77.198;2023-12-20T08:12:59;101520.31;;;3.70;36.69
50105;BME280;47690;39.202;-77.198;2023-12-20T08:15:30;101522.81;;;3.68;37.02
50105;BME280;47690;39.202;-77.198;2023-12-20T08:18:01;101529.69;;;3.71;37.22
50105;BME280;47690;39.202;-77.198;2023-12-20T08:20:30;101523.75;;;3.71;36.50
50105;BME280;47690;39.202;-77.198;2023-12-20T08:23:07;101528.09;;;3.73;36.55
50105;BME280;47690;39.202;-77.198;2023-12-20T08:25:35;101528.88;;;3.72;37.06
50105;BME280;47690;39.202;-77.198;2023-12-20T08:28:04;101525.41;;;3.70;36.58
50105;BME280;47690;39.202;-77.198;2023-12-20T08:30:33;101521.97;;;3.68;37.50
50105;BME280;47690;39.202;-77.198;2023-12-20T08:33:04;101516.75;;;3.65;36.78
50105;BME280;47690;39.202;-77.198;2023-12-20T08:35:32;101516.75;;;3.65;37.03
50105;BME280;47690;39.202;-77.198;2023-12-20T08:38:04;101521.75;;;3.62;36.72
50105;BME280;47690;39.202;-77.198;2023-12-20T08:40:33;101528.47;;;3.60;36.75
50105;BME280;47690;39.202;-77.198;2023-12-20T08:43:02;101532.69;;;3.59;37.20
50105;BME280;47690;39.202;-77.198;2023-12-20T08:45:30;101523.38;;;3.60;37.07
50105;BME280;47690;39.202;-77.198;2023-12-20T08:48:01;101520.78;;;3.58;36.86
50105;BME280;47690;39.202;-77.198;2023-12-20T08:50:32;101519.88;;;3.56;37.32
50105;BME280;47690;39.202;-77.198;2023-12-20T08:53:01;101514.63;;;3.53;36.93
50105;BME280;47690;39.202;-77.198;2023-12-20T08:55:29;101525.56;;;3.49;36.78
50105;BME280;47690;39.202;-77.198;2023-12-20T08:57:59;101509.31;;;3.45;36.86
50105;BME280;47690;39.202;-77.198;2023-12-20T09:00:29;101508.41;;;3.45;36.57
50105;BME280;47690;39.202;-77.198;2023-12-20T09:03:00;101510.91;;;3.43;37.09
50105;BME280;47690;39.202;-77.198;2023-12-20T09:05:29;101505.81;;;3.43;36.68
50105;BME280;47690;39.202;-77.198;2023-12-20T09:07:59;101503.31;;;3.45;36.72
50105;BME280;47690;39.202;-77.198;2023-12-20T09:10:29;101499.03;;;3.44;36.85
50105;BME280;47690;39.202;-77.198;2023-12-20T09:12:59;101503.38;;;3.46;37.55
50105;BME280;47690;39.202;-77.198;2023-12-20T09:15:29;101506.75;;;3.45;37.51
50105;BME280;47690;39.202;-77.198;2023-12-20T09:18:08;101499.03;;;3.44;37.02
50105;BME280;47690;39.202;-77.198;2023-12-20T09:20:37;101506.63;;;3.42;36.93
50105;BME280;47690;39.202;-77.198;2023-12-20T09:23:09;101505.72;;;3.40;36.71
50105;BME280;47690;39.202;-77.198;2023-12-20T09:25:38;101515.03;;;3.39;37.04
50105;BME280;47690;39.202;-77.198;2023-12-20T09:28:06;101512.31;;;3.35;37.23
50105;BME280;47690;39.202;-77.198;2023-12-20T09:30:35;101513.09;;;3.32;37.09
50105;BME280;47690;39.202;-77.198;2023-12-20T09:33:08;101513.97;;;3.33;37.02
50105;BME280;47690;39.202;-77.198;2023-12-20T09:35:37;101508.00;;;3.32;37.24
50105;BME280;47690;39.202;-77.198;2023-12-20T09:38:07;101505.47;;;3.32;37.21
50105;BME280;47690;39.202;-77.198;2023-12-20T09:40:36;101503.69;;;3.30;36.93
50105;BME280;47690;39.202;-77.198;2023-12-20T09:43:14;101505.34;;;3.29;36.90
50105;BME280;47690;39.202;-77.198;2023-12-20T09:45:47;101507.06;;;3.30;37.26
50105;BME280;47690;39.202;-77.198;2023-12-20T09:48:18;101501.97;;;3.30;37.01
50105;BME280;47690;39.202;-77.198;2023-12-20T09:50:48;101501.06;;;3.28;37.50
50105;BME280;47690;39.202;-77.198;2023-12-20T09:53:21;101502.56;;;3.23;37.17
50105;BME280;47690;39.202;-77.198;2023-12-20T09:55:52;101494.78;;;3.18;37.33
50105;BME280;47690;39.202;-77.198;2023-12-20T09:58:21;101498.13;;;3.17;37.16
50105;BME280;47690;39.202;-77.198;2023-12-20T10:00:49;101500.63;;;3.16;36.89
50105;BME280;47690;39.202;-77.198;2023-12-20T10:03:25;101502.31;;;3.15;37.40
50105;BME280;47690;39.202;-77.198;2023-12-20T10:05:57;101505.63;;;3.12;37.31
50105;BME280;47690;39.202;-77.198;2023-12-20T10:08:29;101501.34;;;3.11;37.05
50105;BME280;47690;39.202;-77.198;2023-12-20T10:11:03;101507.28;;;3.12;37.51
50105;BME280;47690;39.202;-77.198;2023-12-20T10:13:32;101508.97;;;3.11;37.77
50105;BME280;47690;39.202;-77.198;2023-12-20T10:16:00;101511.53;;;3.11;37.75
50105;BME280;47690;39.202;-77.198;2023-12-20T10:18:29;101506.31;;;3.08;37.36
50105;BME280;47690;39.202;-77.198;2023-12-20T10:21:06;101514.00;;;3.10;37.04
50105;BME280;47690;39.202;-77.198;2023-12-20T10:23:40;101512.34;;;3.10;37.26
50105;BME280;47690;39.202;-77.198;2023-12-20T10:26:08;101509.72;;;3.09;37.19
50105;BME280;47690;39.202;-77.198;2023-12-20T10:28:37;101508.00;;;3.08;37.65
50105;BME280;47690;39.202;-77.198;2023-12-20T10:31:07;101513.19;;;3.11;36.99
50105;BME280;47690;39.202;-77.198;2023-12-20T10:33:36;101525.09;;;3.12;37.42
50105;BME280;47690;39.202;-77.198;2023-12-20T10:36:05;101519.91;;;3.09;37.41
50105;BME280;47690;39.202;-77.198;2023-12-20T10:38:35;101525.84;;;3.09;37.41
50105;BME280;47690;39.202;-77.198;2023-12-20T10:41:07;101525.81;;;3.08;36.98
50105;BME280;47690;39.202;-77.198;2023-12-20T10:43:37;101523.28;;;3.08;37.29
50105;BME280;47690;39.202;-77.198;2023-12-20T10:46:06;101524.09;;;3.07;37.83
50105;BME280;47690;39.202;-77.198;2023-12-20T10:48:35;101526.63;;;3.07;37.41
50105;BME280;47690;39.202;-77.198;2023-12-20T10:51:05;101529.19;;;3.07;37.39
50105;BME280;47690;39.202;-77.198;2023-12-20T10:53:34;101531.72;;;3.07;37.44
50105;BME280;47690;39.202;-77.198;2023-12-20T10:56:05;101537.81;;;3.10;36.92
50105;BME280;47690;39.202;-77.198;2023-12-20T10:58:37;101532.91;;;3.17;37.93
50105;BME280;47690;39.202;-77.198;2023-12-20T11:01:08;101545.94;;;3.24;37.74
50105;BME280;47690;39.202;-77.198;2023-12-20T11:03:44;101546.81;;;3.25;37.73
50105;BME280;47690;39.202;-77.198;2023-12-20T11:12:14;101555.19;;;3.47;37.16
50105;BME280;47690;39.202;-77.198;2023-12-20T11:14:50;101555.38;;;3.51;37.45
50105;BME280;47690;39.202;-77.198;2023-12-20T11:17:20;101547.59;;;3.48;37.49
50105;BME280;47690;39.202;-77.198;2023-12-20T11:22:26;101562.41;;;3.59;37.33
50105;BME280;47690;39.202;-77.198;2023-12-20T11:25:05;101575.31;;;3.63;37.18
50105;BME280;47690;39.202;-77.198;2023-12-20T11:27:41;101569.47;;;3.66;37.46
50105;BME280;47690;39.202;-77.198;2023-12-20T11:30:15;101569.50;;;3.67;37.71
50105;BME280;47690;39.202;-77.198;2023-12-20T11:32:46;101568.88;;;3.73;37.13
50105;BME280;47690;39.202;-77.198;2023-12-20T11:37:43;101587.63;;;3.75;37.21
50105;BME280;47690;39.202;-77.198;2023-12-20T11:40:16;101586.13;;;3.82;37.08
50105;BME280;47690;39.202;-77.198;2023-12-20T11:42:49;101579.44;;;3.84;37.51
50105;BME280;47690;39.202;-77.198;2023-12-20T11:45:21;101579.47;;;3.86;37.05
50105;BME280;47690;39.202;-77.198;2023-12-20T11:47:56;101583.88;;;3.90;37.29
50105;BME280;47690;39.202;-77.198;2023-12-20T11:50:30;101593.19;;;3.89;37.41
50105;BME280;47690;39.202;-77.198;2023-12-20T11:53:01;101593.16;;;3.88;37.38
50105;BME280;47690;39.202;-77.198;2023-12-20T11:55:30;101589.28;;;3.75;37.22
50105;BME280;47690;39.202;-77.198;2023-12-20T11:58:01;101594.34;;;3.73;37.91
50105;BME280;47690;39.202;-77.198;2023-12-20T12:00:31;101601.88;;;3.70;37.42
50105;BME280;47690;39.202;-77.198;2023-12-20T12:03:00;101610.28;;;3.67;37.29
50105;BME280;47690;39.202;-77.198;2023-12-20T12:05:33;101616.94;;;3.64;37.86
50105;BME280;47690;39.202;-77.198;2023-12-20T12:08:02;101618.66;;;3.65;37.19
50105;BME280;47690;39.202;-77.198;2023-12-20T12:10:35;101626.31;;;3.65;37.57
50105;BME280;47690;39.202;-77.198;2023-12-20T12:13:04;101622.03;;;3.64;37.49
50105;BME280;47690;39.202;-77.198;2023-12-20T12:15:35;101629.69;;;3.64;38.21
50105;BME280;47690;39.202;-77.198;2023-12-20T12:18:05;101627.25;;;3.67;37.73
50105;BME280;47690;39.202;-77.198;2023-12-20T12:20:34;101628.19;;;3.69;37.45
50105;BME280;47690;39.202;-77.198;2023-12-20T12:23:05;101636.63;;;3.68;37.17
50105;BME280;47690;39.202;-77.198;2023-12-20T12:25:37;101635.66;;;3.64;37.17
50105;BME280;47690;39.202;-77.198;2023-12-20T12:28:10;101626.16;;;3.60;37.37
50105;BME280;47690;39.202;-77.198;2023-12-20T12:30:39;101626.16;;;3.60;37.87
50105;BME280;47690;39.202;-77.198;2023-12-20T12:33:21;101630.41;;;3.60;37.53
50105;BME280;47690;39.202;-77.198;2023-12-20T12:35:50;101640.53;;;3.58;37.30
50105;BME280;47690;39.202;-77.198;2023-12-20T12:38:24;101637.06;;;3.56;37.75
50105;BME280;47690;39.202;-77.198;2023-12-20T12:40:52;101641.22;;;3.54;37.21
50105;BME280;47690;39.202;-77.198;2023-12-20T12:43:22;101641.22;;;3.54;38.23
50105;BME280;47690;39.202;-77.198;2023-12-20T12:45:51;101632.88;;;3.58;37.96
50105;BME280;47690;39.202;-77.198;2023-12-20T12:48:20;101635.53;;;3.61;38.15
50105;BME280;47690;39.202;-77.198;2023-12-20T12:50:48;101637.22;;;3.61;37.91
50105;BME280;47690;39.202;-77.198;2023-12-20T12:53:20;101634.69;;;3.61;38.05
50105;BME280;47690;39.202;-77.198;2023-12-20T12:55:48;101630.50;;;3.63;37.74
50105;BME280;47690;39.202;-77.198;2023-12-20T12:58:16;101639.84;;;3.62;37.96
50105;BME280;47690;39.202;-77.198;2023-12-20T13:00:45;101630.41;;;3.60;37.81
50105;BME280;47690;39.202;-77.198;2023-12-20T13:03:13;101633.94;;;3.63;37.68
50105;BME280;47690;39.202;-77.198;2023-12-20T13:05:42;101629.84;;;3.68;38.14
50105;BME280;47690;39.202;-77.198;2023-12-20T13:08:14;101633.38;;;3.72;37.74